sensor_id;sensor_type;location;lat;lon;timestamp;pressure;altitude;pressure_sealevel;temperature;humidity
37200;BME280;23096;50.892;16.746;2022-12-18T00:02:20;100834.71;;;-4.64;81.08
37200;BME280;23096;50.892;16.746;2022-12-18T00:04:47;100832.51;;;-4.66;81.08
37200;BME280;23096;50.892;16.746;2022-12-18T00:07:13;100834.71;;;-4.64;81.14
37200;BME280;23096;50.892;16.746;2022-12-18T00:09:39;100831.34;;;-4.65;81.11
37200;BME280;23096;50.892;16.746;2022-12-18T00:12:05;100841.09;;;-4.63;81.11
37200;BME280;23096;50.892;16.746;2022-12-18T00:14:31;100842.44;;;-4.61;81.10
37200;BME280;23096;50.892;16.746;2022-12-18T00:16:58;100835.69;;;-4.62;81.05
37200;BME280;23096;50.892;16.746;2022-12-18T00:19:25;100839.52;;;-4.60;81.10
37200;BME280;23096;50.892;16.746;2022-12-18T00:21:52;100843.38;;;-4.59;81.14
37200;BME280;23096;50.892;16.746;2022-12-18T00:24:19;100844.55;;;-4.60;81.01
37200;BME280;23096;50.892;16.746;2022-12-18T00:26:45;100849.52;;;-4.62;80.99
37200;BME280;23096;50.892;16.746;2022-12-18T00:29:11;100849.52;;;-4.62;81.06
37200;BME280;23096;50.892;16.746;2022-12-18T00:31:40;100858.56;;;-4.57;81.08
37200;BME280;23096;50.892;16.746;2022-12-18T00:34:09;100857.39;;;-4.56;81.08
37200;BME280;23096;50.892;16.746;2022-12-18T00:36:38;100860.86;;;-4.54;81.11
37200;BME280;23096;50.892;16.746;2022-12-18T00:39:04;100862.30;;;-4.51;81.10
37200;BME280;23096;50.892;16.746;2022-12-18T00:41:31;100863.95;;;-4.51;81.01
37200;BME280;23096;50.892;16.746;2022-12-18T00:44:16;100868.00;;;-4.53;80.90
37200;BME280;23096;50.892;16.746;2022-12-18T00:46:44;100867.06;;;-4.55;80.95
37200;BME280;23096;50.892;16.746;2022-12-18T00:49:11;100876.81;;;-4.53;80.99
37200;BME280;23096;50.892;16.746;2022-12-18T00:51:37;100879.81;;;-4.52;81.03
37200;BME280;23096;50.892;16.746;2022-12-18T00:54:03;100885.89;;;-4.49;81.06
37200;BME280;23096;50.892;16.746;2022-12-18T00:56:30;100889.93;;;-4.44;81.10
37200;BME280;23096;50.892;16.746;2022-12-18T00:58:56;100897.16;;;-4.42;81.12
37200;BME280;23096;50.892;16.746;2022-12-18T01:01:22;100899.59;;;-4.44;80.99
37200;BME280;23096;50.892;16.746;2022-12-18T01:03:48;100904.63;;;-4.44;80.99
37200;BME280;23096;50.892;16.746;2022-12-18T01:06:15;100908.18;;;-4.40;81.06
37200;BME280;23096;50.892;16.746;2022-12-18T01:08:41;100914.07;;;-4.39;81.02
37200;BME280;23096;50.892;16.746;2022-12-18T01:11:10;100908.58;;;-4.40;81.00
37200;BME280;23096;50.892;16.746;2022-12-18T01:13:40;100913.21;;;-4.40;81.01
37200;BME280;23096;50.892;16.746;2022-12-18T01:16:06;100919.65;;;-4.37;81.08
37200;BME280;23096;50.892;16.746;2022-12-18T01:18:34;100920.91;;;-4.37;80.99
37200;BME280;23096;50.892;16.746;2022-12-18T01:21:00;100916.59;;;-4.39;80.93
37200;BME280;23096;50.892;16.746;2022-12-18T01:23:28;100921.08;;;-4.42;80.92
37200;BME280;23096;50.892;16.746;2022-12-18T01:25:54;100922.42;;;-4.40;81.01
37200;BME280;23096;50.892;16.746;2022-12-18T01:28:20;100920.05;;;-4.37;81.09
37200;BME280;23096;50.892;16.746;2022-12-18T01:30:46;100914.39;;;-4.33;81.14
37200;BME280;23096;50.892;16.746;2022-12-18T01:33:12;100920.47;;;-4.30;81.07
37200;BME280;23096;50.892;16.746;2022-12-18T01:35:41;100920.86;;;-4.30;80.97
37200;BME280;23096;50.892;16.746;2022-12-18T01:38:19;100918.03;;;-4.28;80.98
37200;BME280;23096;50.892;16.746;2022-12-18T01:40:43;100916.77;;;-4.28;80.96
37200;BME280;23096;50.892;16.746;2022-12-18T01:43:10;100919.15;;;-4.31;80.89
37200;BME280;23096;50.892;16.746;2022-12-18T01:45:35;100924.09;;;-4.33;80.90
37200;BME280;23096;50.892;16.746;2022-12-18T01:48:04;100933.77;;;-4.32;80.91
37200;BME280;23096;50.892;16.746;2022-12-18T01:50:45;100934.47;;;-4.35;80.86
37200;BME280;23096;50.892;16.746;2022-12-18T01:53:15;100927.69;;;-4.36;80.88
37200;BME280;23096;50.892;16.746;2022-12-18T01:55:45;100927.88;;;-4.33;80.98
37200;BME280;23096;50.892;16.746;2022-12-18T01:58:16;100929.81;;;-4.35;80.84
37200;BME280;23096;50.892;16.746;2022-12-18T02:00:43;100937.76;;;-4.36;80.94
37200;BME280;23096;50.892;16.746;2022-12-18T02:03:10;100938.80;;;-4.32;81.04
37200;BME280;23096;50.892;16.746;2022-12-18T02:05:47;100944.16;;;-4.26;81.04
37200;BME280;23096;50.892;16.746;2022-12-18T02:10:57;100949.99;;;-4.27;80.91
37200;BME280;23096;50.892;16.746;2022-12-18T02:13:46;100957.05;;;-4.28;80.88
37200;BME280;23096;50.892;16.746;2022-12-18T02:16:43;100960.06;;;-4.27;80.92
37200;BME280;23096;50.892;16.746;2022-12-18T02:19:16;100961.14;;;-4.30;80.81
37200;BME280;23096;50.892;16.746;2022-12-18T02:21:54;100962.31;;;-4.32;80.78
37200;BME280;23096;50.892;16.746;2022-12-18T02:27:01;100959.16;;;-4.36;80.78
37200;BME280;23096;50.892;16.746;2022-12-18T02:29:51;100970.79;;;-4.38;80.77
37200;BME280;23096;50.892;16.746;2022-12-18T02:35:04;100970.30;;;-4.39;80.84
37200;BME280;23096;50.892;16.746;2022-12-18T02:37:36;100971.95;;;-4.39;80.84
37200;BME280;23096;50.892;16.746;2022-12-18T02:40:10;100974.39;;;-4.41;80.76
37200;BME280;23096;50.892;16.746;2022-12-18T02:42:40;100977.70;;;-4.42;80.72
37200;BME280;23096;50.892;16.746;2022-12-18T02:45:07;100977.43;;;-4.47;80.65
37200;BME280;23096;50.892;16.746;2022-12-18T02:47:35;100986.27;;;-4.53;80.59
37200;BME280;23096;50.892;16.746;2022-12-18T02:52:51;100984.92;;;-4.70;80.49
37200;BME280;23096;50.892;16.746;2022-12-18T02:58:20;100985.63;;;-4.72;80.74
37200;BME280;23096;50.892;16.746;2022-12-18T03:01:09;100980.81;;;-4.61;80.93
37200;BME280;23096;50.892;16.746;2022-12-18T03:03:45;100977.62;;;-4.58;80.78
37200;BME280;23096;50.892;16.746;2022-12-18T03:06:21;100977.74;;;-4.64;80.64
37200;BME280;23096;50.892;16.746;2022-12-18T03:08:49;100978.63;;;-4.70;80.55
37200;BME280;23096;50.892;16.746;2022-12-18T03:11:17;100965.91;;;-4.73;80.61
37200;BME280;23096;50.892;16.746;2022-12-18T03:13:46;100975.45;;;-4.67;80.72
37200;BME280;23096;50.892;16.746;2022-12-18T03:16:20;100981.83;;;-4.66;80.71
37200;BME280;23096;50.892;16.746;2022-12-18T03:18:54;100983.95;;;-4.65;80.66
37200;BME280;23096;50.892;16.746;2022-12-18T03:21:30;100978.20;;;-4.63;80.73
37200;BME280;23096;50.892;16.746;2022-12-18T03:23:54;100984.77;;;-4.58;80.79
37200;BME280;23096;50.892;16.746;2022-12-18T03:26:23;100989.19;;;-4.54;80.82
37200;BME280;23096;50.892;16.746;2022-12-18T03:29:03;100984.89;;;-4.48;80.88
37200;BME280;23096;50.892;16.746;2022-12-18T03:31:28;100989.25;;;-4.46;80.76
37200;BME280;23096;50.892;16.746;2022-12-18T03:33:57;100990.11;;;-4.45;80.69
37200;BME280;23096;50.892;16.746;2022-12-18T03:36:26;100998.42;;;-4.46;80.65
37200;BME280;23096;50.892;16.746;2022-12-18T03:38:56;101007.63;;;-4.47;80.63
37200;BME280;23096;50.892;16.746;2022-12-18T03:41:28;101013.92;;;-4.47;80.61
37200;BME280;23096;50.892;16.746;2022-12-18T03:50:12;101025.12;;;-4.41;80.58
37200;BME280;23096;50.892;16.746;2022-12-18T03:52:56;101038.20;;;-4.40;80.65
37200;BME280;23096;50.892;16.746;2022-12-18T03:55:30;101032.77;;;-4.40;80.62
37200;BME280;23096;50.892;16.746;2022-12-18T03:58:00;101037.30;;;-4.41;80.51
37200;BME280;23096;50.892;16.746;2022-12-18T04:00:30;101039.30;;;-4.50;80.29
37200;BME280;23096;50.892;16.746;2022-12-18T04:02:59;101036.35;;;-4.58;80.31
37200;BME280;23096;50.892;16.746;2022-12-18T04:05:28;101041.91;;;-4.64;80.32
37200;BME280;23096;50.892;16.746;2022-12-18T04:07:57;101039.71;;;-4.72;80.23
37200;BME280;23096;50.892;16.746;2022-12-18T04:10:24;101037.31;;;-4.77;80.26
37200;BME280;23096;50.892;16.746;2022-12-18T04:12:50;101042.16;;;-4.81;80.30
37200;BME280;23096;50.892;16.746;2022-12-18T04:15:16;101042.45;;;-4.83;80.36
37200;BME280;23096;50.892;16.746;2022-12-18T04:17:49;101031.63;;;-4.82;80.40
37200;BME280;23096;50.892;16.746;2022-12-18T04:20:17;101040.90;;;-4.81;80.41
37200;BME280;23096;50.892;16.746;2022-12-18T04:22:43;101041.20;;;-4.83;80.34
37200;BME280;23096;50.892;16.746;2022-12-18T04:25:10;101044.72;;;-4.87;80.18
37200;BME280;23096;50.892;16.746;2022-12-18T04:27:39;101045.70;;;-4.92;80.17
37200;BME280;23096;50.892;16.746;2022-12-18T04:30:06;101040.41;;;-4.96;80.19
37200;BME280;23096;50.892;16.746;2022-12-18T04:32:34;101044.19;;;-4.96;80.22
37200;BME280;23096;50.892;16.746;2022-12-18T04:35:01;101046.39;;;-4.94;80.32
37200;BME280;23096;50.892;16.746;2022-12-18T04:37:41;101042.88;;;-4.90;80.48
37200;BME280;23096;50.892;16.746;2022-12-18T04:40:08;101044.02;;;-4.85;80.48
37200;BME280;23096;50.892;16.746;2022-12-18T04:42:38;101044.77;;;-4.79;80.53
37200;BME280;23096;50.892;16.746;2022-12-18T04:45:13;101050.38;;;-4.76;80.39
37200;BME280;23096;50.892;16.746;2022-12-18T04:47:39;101044.88;;;-4.84;80.19
37200;BME280;23096;50.892;16.746;2022-12-18T04:50:11;101050.41;;;-4.83;80.23
37200;BME280;23096;50.892;16.746;2022-12-18T04:52:37;101050.82;;;-4.90;80.13
37200;BME280;23096;50.892;16.746;2022-12-18T04:55:08;101050.91;;;-4.89;80.27
37200;BME280;23096;50.892;16.746;2022-12-18T04:57:34;101047.25;;;-4.94;80.33
37200;BME280;23096;50.892;16.746;2022-12-18T05:00:12;101057.00;;;-4.85;80.36
37200;BME280;23096;50.892;16.746;2022-12-18T05:02:41;101068.11;;;-4.82;80.42
37200;BME280;23096;50.892;16.746;2022-12-18T05:05:10;101071.02;;;-4.82;80.30
37200;BME280;23096;50.892;16.746;2022-12-18T05:07:36;101055.10;;;-4.96;80.23
37200;BME280;23096;50.892;16.746;2022-12-18T05:10:12;101072.89;;;-4.93;80.11
37200;BME280;23096;50.892;16.746;2022-12-18T05:12:38;101074.77;;;-5.04;79.94
37200;BME280;23096;50.892;16.746;2022-12-18T05:15:15;101078.35;;;-5.13;79.95
37200;BME280;23096;50.892;16.746;2022-12-18T05:17:41;101075.39;;;-5.28;79.80
37200;BME280;23096;50.892;16.746;2022-12-18T05:20:13;101079.85;;;-5.30;80.07
37200;BME280;23096;50.892;16.746;2022-12-18T05:22:39;101071.62;;;-5.28;80.15
37200;BME280;23096;50.892;16.746;2022-12-18T05:25:12;101074.23;;;-5.26;80.18
37200;BME280;23096;50.892;16.746;2022-12-18T05:27:38;101073.93;;;-5.24;80.18
37200;BME280;23096;50.892;16.746;2022-12-18T05:30:10;101079.36;;;-5.25;80.17
37200;BME280;23096;50.892;16.746;2022-12-18T05:32:37;101085.64;;;-5.25;80.16
37200;BME280;23096;50.892;16.746;2022-12-18T05:35:10;101090.86;;;-5.28;80.14
37200;BME280;23096;50.892;16.746;2022-12-18T05:37:37;101087.69;;;-5.26;80.21
37200;BME280;23096;50.892;16.746;2022-12-18T05:40:11;101089.70;;;-5.27;80.12
37200;BME280;23096;50.892;16.746;2022-12-18T05:42:38;101087.89;;;-5.29;80.08
37200;BME280;23096;50.892;16.746;2022-12-18T05:45:16;101088.09;;;-5.33;80.00
37200;BME280;23096;50.892;16.746;2022-12-18T05:47:42;101080.84;;;-5.48;80.00
37200;BME280;23096;50.892;16.746;2022-12-18T05:50:11;101093.97;;;-5.39;80.10
37200;BME280;23096;50.892;16.746;2022-12-18T05:52:37;101099.39;;;-5.40;80.12
37200;BME280;23096;50.892;16.746;2022-12-18T05:55:12;101105.38;;;-5.37;80.11
37200;BME280;23096;50.892;16.746;2022-12-18T05:57:38;101113.88;;;-5.42;80.04
37200;BME280;23096;50.892;16.746;2022-12-18T06:00:11;101113.41;;;-5.43;80.08
37200;BME280;23096;50.892;16.746;2022-12-18T06:02:38;101101.25;;;-5.44;80.05
37200;BME280;23096;50.892;16.746;2022-12-18T06:05:12;101101.70;;;-5.43;80.14
37200;BME280;23096;50.892;16.746;2022-12-18T06:07:37;101105.28;;;-5.39;80.18
37200;BME280;23096;50.892;16.746;2022-12-18T06:10:19;101098.80;;;-5.35;80.19
37200;BME280;23096;50.892;16.746;2022-12-18T06:12:45;101103.43;;;-5.35;80.09
37200;BME280;23096;50.892;16.746;2022-12-18T06:15:11;101097.74;;;-5.39;80.00
37200;BME280;23096;50.892;16.746;2022-12-18T06:17:37;101101.41;;;-5.41;80.03
37200;BME280;23096;50.892;16.746;2022-12-18T06:20:09;101106.34;;;-5.42;80.01
37200;BME280;23096;50.892;16.746;2022-12-18T06:22:35;101119.09;;;-5.46;79.93
37200;BME280;23096;50.892;16.746;2022-12-18T06:25:12;101127.72;;;-5.49;79.98
37200;BME280;23096;50.892;16.746;2022-12-18T06:27:38;101128.48;;;-5.50;80.10
37200;BME280;23096;50.892;16.746;2022-12-18T06:30:13;101131.30;;;-5.45;80.06
37200;BME280;23096;50.892;16.746;2022-12-18T06:32:42;101141.81;;;-5.44;80.05
37200;BME280;23096;50.892;16.746;2022-12-18T06:35:08;101151.56;;;-5.42;80.01
37200;BME280;23096;50.892;16.746;2022-12-18T06:37:34;101153.32;;;-5.41;80.04
37200;BME280;23096;50.892;16.746;2022-12-18T06:40:00;101149.26;;;-5.39;80.07
37200;BME280;23096;50.892;16.746;2022-12-18T06:42:26;101145.88;;;-5.40;79.98
37200;BME280;23096;50.892;16.746;2022-12-18T06:44:52;101162.61;;;-5.40;79.98
37200;BME280;23096;50.892;16.746;2022-12-18T06:47:19;101163.77;;;-5.42;79.90
37200;BME280;23096;50.892;16.746;2022-12-18T06:49:47;101163.67;;;-5.43;79.95
37200;BME280;23096;50.892;16.746;2022-12-18T06:52:16;101159.40;;;-5.44;79.93
37200;BME280;23096;50.892;16.746;2022-12-18T06:54:42;101164.26;;;-5.47;79.92
37200;BME280;23096;50.892;16.746;2022-12-18T06:57:08;101170.44;;;-5.49;79.94
37200;BME280;23096;50.892;16.746;2022-12-18T06:59:34;101172.76;;;-5.45;80.05
37200;BME280;23096;50.892;16.746;2022-12-18T07:02:00;101172.17;;;-5.41;80.10
37200;BME280;23096;50.892;16.746;2022-12-18T07:04:29;101168.00;;;-5.41;80.05
37200;BME280;23096;50.892;16.746;2022-12-18T07:06:56;101167.70;;;-5.39;80.01
37200;BME280;23096;50.892;16.746;2022-12-18T07:09:23;101177.00;;;-5.37;80.02
37200;BME280;23096;50.892;16.746;2022-12-18T07:11:49;101178.66;;;-5.38;79.99
37200;BME280;23096;50.892;16.746;2022-12-18T07:14:15;101181.34;;;-5.35;80.03
37200;BME280;23096;50.892;16.746;2022-12-18T07:16:41;101184.34;;;-5.34;80.01
37200;BME280;23096;50.892;16.746;2022-12-18T07:19:13;101187.06;;;-5.31;80.07
37200;BME280;23096;50.892;16.746;2022-12-18T07:21:40;101185.98;;;-5.28;80.06
37200;BME280;23096;50.892;16.746;2022-12-18T07:24:11;101184.45;;;-5.26;80.06
37200;BME280;23096;50.892;16.746;2022-12-18T07:26:37;101183.56;;;-5.26;80.00
37200;BME280;23096;50.892;16.746;2022-12-18T07:29:09;101185.78;;;-5.24;80.03
37200;BME280;23096;50.892;16.746;2022-12-18T07:31:36;101193.03;;;-5.22;79.99
37200;BME280;23096;50.892;16.746;2022-12-18T07:34:09;101195.84;;;-5.24;79.98
37200;BME280;23096;50.892;16.746;2022-12-18T07:36:38;101207.55;;;-5.25;79.95
37200;BME280;23096;50.892;16.746;2022-12-18T07:39:04;101207.55;;;-5.25;79.98
37200;BME280;23096;50.892;16.746;2022-12-18T07:41:31;101209.09;;;-5.27;79.96
37200;BME280;23096;50.892;16.746;2022-12-18T07:43:59;101216.05;;;-5.23;80.06
37200;BME280;23096;50.892;16.746;2022-12-18T07:46:25;101216.72;;;-5.18;80.09
37200;BME280;23096;50.892;16.746;2022-12-18T07:48:51;101212.19;;;-5.17;80.01
37200;BME280;23096;50.892;16.746;2022-12-18T07:51:17;101212.94;;;-5.18;79.94
37200;BME280;23096;50.892;16.746;2022-12-18T07:53:43;101209.11;;;-5.20;79.94
37200;BME280;23096;50.892;16.746;2022-12-18T07:56:10;101206.66;;;-5.18;79.99
37200;BME280;23096;50.892;16.746;2022-12-18T07:58:37;101214.70;;;-5.17;79.99
37200;BME280;23096;50.892;16.746;2022-12-18T08:01:07;101219.43;;;-5.15;80.00
37200;BME280;23096;50.892;16.746;2022-12-18T08:03:34;101217.70;;;-5.16;79.98
37200;BME280;23096;50.892;16.746;2022-12-18T08:06:01;101217.70;;;-5.16;79.98
37200;BME280;23096;50.892;16.746;2022-12-18T08:08:28;101217.70;;;-5.16;79.97
37200;BME280;23096;50.892;16.746;2022-12-18T08:10:54;101218.07;;;-5.17;79.99
37200;BME280;23096;50.892;16.746;2022-12-18T08:13:20;101218.57;;;-5.16;79.97
37200;BME280;23096;50.892;16.746;2022-12-18T08:15:48;101225.72;;;-5.15;79.98
37200;BME280;23096;50.892;16.746;2022-12-18T08:18:24;101237.70;;;-5.11;80.02
37200;BME280;23096;50.892;16.746;2022-12-18T08:20:50;101233.66;;;-5.09;80.07
37200;BME280;23096;50.892;16.746;2022-12-18T08:23:16;101245.64;;;-5.05;80.05
37200;BME280;23096;50.892;16.746;2022-12-18T08:25:42;101240.32;;;-5.03;79.98
37200;BME280;23096;50.892;16.746;2022-12-18T08:28:09;101242.08;;;-5.02;79.95
37200;BME280;23096;50.892;16.746;2022-12-18T08:30:35;101243.59;;;-5.04;79.87
37200;BME280;23096;50.892;16.746;2022-12-18T08:33:02;101246.80;;;-5.07;79.81
37200;BME280;23096;50.892;16.746;2022-12-18T08:35:28;101249.11;;;-5.10;79.83
37200;BME280;23096;50.892;16.746;2022-12-18T08:37:54;101259.06;;;-5.11;79.86
37200;BME280;23096;50.892;16.746;2022-12-18T08:40:20;101259.46;;;-5.12;79.84
37200;BME280;23096;50.892;16.746;2022-12-18T08:42:46;101251.52;;;-5.11;79.85
37200;BME280;23096;50.892;16.746;2022-12-18T08:45:14;101246.79;;;-5.13;79.78
37200;BME280;23096;50.892;16.746;2022-12-18T08:47:40;101252.51;;;-5.16;79.74
37200;BME280;23096;50.892;16.746;2022-12-18T08:50:06;101255.98;;;-5.14;79.79
37200;BME280;23096;50.892;16.746;2022-12-18T08:52:33;101247.37;;;-5.17;79.77
37200;BME280;23096;50.892;16.746;2022-12-18T08:54:59;101261.77;;;-5.15;79.80
37200;BME280;23096;50.892;16.746;2022-12-18T08:57:25;101267.70;;;-5.14;79.78
37200;BME280;23096;50.892;16.746;2022-12-18T08:59:51;101268.84;;;-5.16;79.74
37200;BME280;23096;50.892;16.746;2022-12-18T09:02:17;101270.67;;;-5.13;79.79
37200;BME280;23096;50.892;16.746;2022-12-18T09:04:43;101260.16;;;-5.14;79.78
37200;BME280;23096;50.892;16.746;2022-12-18T09:07:09;101261.11;;;-5.12;79.77
37200;BME280;23096;50.892;16.746;2022-12-18T09:09:35;101253.28;;;-5.10;79.80
37200;BME280;23096;50.892;16.746;2022-12-18T09:12:01;101244.69;;;-5.07;79.78
37200;BME280;23096;50.892;16.746;2022-12-18T09:14:28;101234.33;;;-5.05;79.80
37200;BME280;23096;50.892;16.746;2022-12-18T09:16:54;101221.06;;;-5.03;79.79
37200;BME280;23096;50.892;16.746;2022-12-18T09:19:20;101213.23;;;-5.01;79.79
37200;BME280;23096;50.892;16.746;2022-12-18T09:21:46;101213.13;;;-4.95;79.82
37200;BME280;23096;50.892;16.746;2022-12-18T09:24:12;101209.95;;;-4.93;79.80
37200;BME280;23096;50.892;16.746;2022-12-18T09:26:39;101211.67;;;-4.92;79.77
37200;BME280;23096;50.892;16.746;2022-12-18T09:29:05;101205.09;;;-4.90;79.77
37200;BME280;23096;50.892;16.746;2022-12-18T09:31:32;101206.34;;;-4.90;79.69
37200;BME280;23096;50.892;16.746;2022-12-18T09:33:58;101209.75;;;-4.89;79.68
37200;BME280;23096;50.892;16.746;2022-12-18T09:36:25;101204.62;;;-4.91;79.64
37200;BME280;23096;50.892;16.746;2022-12-18T09:38:53;101202.11;;;-4.91;79.62
37200;BME280;23096;50.892;16.746;2022-12-18T09:47:06;101202.67;;;-4.95;79.50
37200;BME280;23096;50.892;16.746;2022-12-18T09:49:42;101202.91;;;-4.98;79.51
37200;BME280;23096;50.892;16.746;2022-12-18T09:54:46;101200.29;;;-5.00;79.52
37200;BME280;23096;50.892;16.746;2022-12-18T09:57:18;101196.98;;;-4.99;79.52
37200;BME280;23096;50.892;16.746;2022-12-18T09:59:48;101199.49;;;-4.99;79.49
37200;BME280;23096;50.892;16.746;2022-12-18T10:02:19;101203.27;;;-4.99;79.47
37200;BME280;23096;50.892;16.746;2022-12-18T10:05:02;101202.50;;;-4.98;79.48
37200;BME280;23096;50.892;16.746;2022-12-18T10:07:32;101197.94;;;-4.97;79.42
37200;BME280;23096;50.892;16.746;2022-12-18T10:10:12;101196.78;;;-4.95;79.48
37200;BME280;23096;50.892;16.746;2022-12-18T10:15:15;101195.53;;;-4.89;79.48
37200;BME280;23096;50.892;16.746;2022-12-18T10:17:45;101199.00;;;-4.87;79.45
37200;BME280;23096;50.892;16.746;2022-12-18T10:26:00;101204.39;;;-4.74;79.52
37200;BME280;23096;50.892;16.746;2022-12-18T10:28:29;101205.94;;;-4.69;79.44
37200;BME280;23096;50.892;16.746;2022-12-18T10:30:56;101209.58;;;-4.64;79.47
37200;BME280;23096;50.892;16.746;2022-12-18T10:33:27;101209.47;;;-4.59;79.49
37200;BME280;23096;50.892;16.746;2022-12-18T10:35:55;101212.68;;;-4.55;79.48
37200;BME280;23096;50.892;16.746;2022-12-18T10:38:22;101219.13;;;-4.52;79.46
37200;BME280;23096;50.892;16.746;2022-12-18T10:40:58;101213.53;;;-4.48;79.44
37200;BME280;23096;50.892;16.746;2022-12-18T10:43:33;101200.95;;;-4.48;79.37
37200;BME280;23096;50.892;16.746;2022-12-18T10:48:40;101201.49;;;-4.38;79.43
37200;BME280;23096;50.892;16.746;2022-12-18T10:51:22;101199.04;;;-4.37;79.33
37200;BME280;23096;50.892;16.746;2022-12-18T10:54:05;101199.44;;;-4.37;79.26
37200;BME280;23096;50.892;16.746;2022-12-18T10:56:36;101203.22;;;-4.37;79.22
37200;BME280;23096;50.892;16.746;2022-12-18T10:59:02;101204.01;;;-4.38;79.20
37200;BME280;23096;50.892;16.746;2022-12-18T11:01:44;101203.82;;;-4.41;79.14
37200;BME280;23096;50.892;16.746;2022-12-18T11:04:28;101206.94;;;-4.46;79.05
37200;BME280;23096;50.892;16.746;2022-12-18T11:06:53;101207.70;;;-4.47;79.11
37200;BME280;23096;50.892;16.746;2022-12-18T11:09:22;101209.27;;;-4.55;78.89
37200;BME280;23096;50.892;16.746;2022-12-18T11:11:50;101220.99;;;-4.56;78.92
37200;BME280;23096;50.892;16.746;2022-12-18T11:14:21;101230.10;;;-4.58;78.92
37200;BME280;23096;50.892;16.746;2022-12-18T11:16:48;101237.84;;;-4.62;78.89
37200;BME280;23096;50.892;16.746;2022-12-18T11:19:32;101233.12;;;-4.64;78.87
37200;BME280;23096;50.892;16.746;2022-12-18T11:22:01;101237.75;;;-4.63;78.90
37200;BME280;23096;50.892;16.746;2022-12-18T11:24:34;101241.62;;;-4.62;78.93
37200;BME280;23096;50.892;16.746;2022-12-18T11:27:01;101246.75;;;-4.60;78.91
37200;BME280;23096;50.892;16.746;2022-12-18T11:32:47;101242.28;;;-4.57;78.87
37200;BME280;23096;50.892;16.746;2022-12-18T11:34:43;101237.65;;;-4.58;78.85
37200;BME280;23096;50.892;16.746;2022-12-18T11:37:11;101239.96;;;-4.54;78.91
37200;BME280;23096;50.892;16.746;2022-12-18T11:39:44;101237.91;;;-4.53;78.82
37200;BME280;23096;50.892;16.746;2022-12-18T11:42:20;101232.52;;;-4.53;78.82
37200;BME280;23096;50.892;16.746;2022-12-18T11:45:03;101221.66;;;-4.52;78.79
37200;BME280;23096;50.892;16.746;2022-12-18T11:47:42;101219.63;;;-4.51;78.71
37200;BME280;23096;50.892;16.746;2022-12-18T11:50:17;101209.37;;;-4.54;78.66
37200;BME280;23096;50.892;16.746;2022-12-18T11:52:47;101207.25;;;-4.54;78.62
37200;BME280;23096;50.892;16.746;2022-12-18T11:55:14;101201.62;;;-4.57;78.59
37200;BME280;23096;50.892;16.746;2022-12-18T12:00:21;101192.26;;;-4.59;78.55
37200;BME280;23096;50.892;16.746;2022-12-18T12:11:29;101180.38;;;-4.69;78.54
37200;BME280;23096;50.892;16.746;2022-12-18T12:13:46;101189.95;;;-4.70;78.49
37200;BME280;23096;50.892;16.746;2022-12-18T12:19:15;101190.16;;;-4.73;78.42
37200;BME280;23096;50.892;16.746;2022-12-18T12:21:55;101192.61;;;-4.75;78.40
37200;BME280;23096;50.892;16.746;2022-12-18T12:27:22;101191.75;;;-4.82;78.32
37200;BME280;23096;50.892;16.746;2022-12-18T12:30:18;101194.53;;;-4.84;78.35
37200;BME280;23096;50.892;16.746;2022-12-18T12:40:35;101181.09;;;-4.85;78.38
37200;BME280;23096;50.892;16.746;2022-12-18T12:43:49;101182.65;;;-4.87;78.31
37200;BME280;23096;50.892;16.746;2022-12-18T12:45:50;101188.38;;;-4.89;78.26
37200;BME280;23096;50.892;16.746;2022-12-18T12:51:24;101192.71;;;-4.93;78.25
37200;BME280;23096;50.892;16.746;2022-12-18T12:53:55;101192.25;;;-4.94;78.25
37200;BME280;23096;50.892;16.746;2022-12-18T12:56:32;101194.77;;;-4.94;78.30
37200;BME280;23096;50.892;16.746;2022-12-18T12:59:01;101194.66;;;-4.96;78.27
37200;BME280;23096;50.892;16.746;2022-12-18T13:01:52;101198.91;;;-4.95;78.28
37200;BME280;23096;50.892;16.746;2022-12-18T13:07:15;101210.31;;;-4.93;78.27
37200;BME280;23096;50.892;16.746;2022-12-18T13:12:56;101199.99;;;-4.98;78.15
37200;BME280;23096;50.892;16.746;2022-12-18T13:18:16;101195.55;;;-5.02;78.10
37200;BME280;23096;50.892;16.746;2022-12-18T13:21:01;101195.36;;;-5.05;78.05
37200;BME280;23096;50.892;16.746;2022-12-18T13:31:14;101197.69;;;-5.22;77.83
37200;BME280;23096;50.892;16.746;2022-12-18T13:33:45;101197.39;;;-5.26;77.81
37200;BME280;23096;50.892;16.746;2022-12-18T13:36:16;101202.50;;;-5.31;77.82
37200;BME280;23096;50.892;16.746;2022-12-18T13:38:44;101195.16;;;-5.35;77.80
37200;BME280;23096;50.892;16.746;2022-12-18T13:43:49;101213.34;;;-5.39;77.78
37200;BME280;23096;50.892;16.746;2022-12-18T13:46:21;101212.27;;;-5.43;77.79
37200;BME280;23096;50.892;16.746;2022-12-18T13:48:51;101221.75;;;-5.45;77.77
37200;BME280;23096;50.892;16.746;2022-12-18T13:51:29;101219.53;;;-5.47;77.80
37200;BME280;23096;50.892;16.746;2022-12-18T13:53:58;101226.47;;;-5.50;77.76
37200;BME280;23096;50.892;16.746;2022-12-18T13:56:27;101229.67;;;-5.52;77.77
37200;BME280;23096;50.892;16.746;2022-12-18T14:04:26;101244.25;;;-5.53;77.81
37200;BME280;23096;50.892;16.746;2022-12-18T14:06:57;101243.48;;;-5.52;77.81
37200;BME280;23096;50.892;16.746;2022-12-18T14:09:27;101234.20;;;-5.53;77.79
37200;BME280;23096;50.892;16.746;2022-12-18T14:11:54;101244.64;;;-5.54;77.77
37200;BME280;23096;50.892;16.746;2022-12-18T14:14:46;101248.70;;;-5.56;77.74
37200;BME280;23096;50.892;16.746;2022-12-18T14:17:14;101246.84;;;-5.59;77.75
37200;BME280;23096;50.892;16.746;2022-12-18T14:19:50;101248.89;;;-5.60;77.71
37200;BME280;23096;50.892;16.746;2022-12-18T14:22:18;101253.59;;;-5.64;77.66
37200;BME280;23096;50.892;16.746;2022-12-18T14:24:46;101254.93;;;-5.69;77.66
37200;BME280;23096;50.892;16.746;2022-12-18T14:27:22;101254.75;;;-5.72;77.67
37200;BME280;23096;50.892;16.746;2022-12-18T14:29:48;101254.65;;;-5.74;77.66